createdAt,value
2023-03-06T00:01:48.609Z,23.97
2023-03-06T00:05:32.862Z,24.73
2023-03-06T00:09:15.553Z,21.03
2023-03-06T00:12:59.457Z,24.40
2023-03-06T00:16:42.134Z,25.70
2023-03-06T00:20:25.124Z,27.70
2023-03-06T00:24:09.440Z,22.77
2023-03-06T00:27:52.336Z,23.90
2023-03-06T00:31:36.652Z,26.80
2023-03-06T00:35:19.506Z,23.03
2023-03-06T00:39:02.191Z,33.63
2023-03-06T00:42:46.378Z,26.43
2023-03-06T00:46:29.069Z,21.97
2023-03-06T00:50:12.585Z,20.00
2023-03-06T00:53:55.284Z,25.00
2023-03-06T00:57:37.974Z,21.40
2023-03-06T01:01:23.234Z,24.03
2023-03-06T01:05:06.886Z,23.17
2023-03-06T01:08:49.564Z,24.77
2023-03-06T01:12:32.339Z,24.13
2023-03-06T01:16:17.173Z,20.53
2023-03-06T01:20:01.208Z,20.77
2023-03-06T01:23:43.956Z,23.33
2023-03-06T01:27:26.691Z,24.47
2023-03-06T01:31:10.038Z,19.40
2023-03-06T01:34:52.652Z,24.57
2023-03-06T01:38:37.034Z,20.87
2023-03-06T01:42:19.699Z,22.23
2023-03-06T01:46:38.703Z,24.33
2023-03-06T01:50:21.399Z,22.70
2023-03-06T01:54:08.863Z,23.70
2023-03-06T01:57:53.697Z,21.93
2023-03-06T02:01:36.667Z,21.43
2023-03-06T02:05:19.321Z,22.90
2023-03-06T02:09:01.984Z,21.47
2023-03-06T02:12:46.695Z,20.07
2023-03-06T02:16:31.765Z,21.80
2023-03-06T02:20:18.458Z,21.50
2023-03-06T02:24:08.265Z,20.87
2023-03-06T02:27:52.199Z,22.07
2023-03-06T02:31:35.585Z,25.23
2023-03-06T02:35:20.568Z,20.07
2023-03-06T02:39:03.801Z,20.17
2023-03-06T02:42:47.349Z,21.33
2023-03-06T02:46:31.622Z,21.93
2023-03-06T02:50:14.319Z,23.47
2023-03-06T02:53:56.974Z,22.77
2023-03-06T02:57:39.609Z,22.43
2023-03-06T03:01:22.977Z,22.23
2023-03-06T03:05:08.096Z,20.33
2023-03-06T03:08:50.700Z,24.00
2023-03-06T03:12:33.511Z,24.53
2023-03-06T03:16:16.704Z,24.23
2023-03-06T03:19:59.417Z,21.40
2023-03-06T03:23:43.473Z,23.20
2023-03-06T03:27:26.173Z,23.23
2023-03-06T03:31:10.491Z,24.27
2023-03-06T03:34:53.369Z,23.17
2023-03-06T03:38:36.486Z,25.13
2023-03-06T03:42:20.586Z,20.83
2023-03-06T03:46:03.260Z,20.27
2023-03-06T03:49:46.064Z,19.63
2023-03-06T03:53:28.740Z,22.50
2023-03-06T03:57:11.481Z,20.67
2023-03-06T04:00:55.489Z,21.93
2023-03-06T04:04:38.132Z,20.63
2023-03-06T04:08:20.878Z,24.80
2023-03-06T04:12:03.550Z,23.93
2023-03-06T04:15:46.203Z,23.00
2023-03-06T04:19:30.228Z,23.83
2023-03-06T04:23:13.047Z,22.43
2023-03-06T04:26:55.677Z,19.83
2023-03-06T04:30:38.430Z,21.90
2023-03-06T04:34:21.123Z,19.23
2023-03-06T04:38:05.282Z,22.97
2023-03-06T04:41:47.928Z,25.20
2023-03-06T04:45:31.720Z,22.33
2023-03-06T04:49:14.404Z,21.47
2023-03-06T04:52:57.041Z,27.53
2023-03-06T04:56:41.081Z,23.57
2023-03-06T05:00:29.335Z,22.03
2023-03-06T05:04:11.956Z,24.87
2023-03-06T05:07:54.886Z,21.83
2023-03-06T05:11:37.542Z,21.40
2023-03-06T05:15:21.669Z,21.20
2023-03-06T05:19:04.356Z,22.20
2023-03-06T05:22:46.973Z,20.90
2023-03-06T05:26:29.614Z,24.37
2023-03-06T05:30:14.443Z,21.47
2023-03-06T05:34:00.638Z,21.20
2023-03-06T05:37:43.267Z,22.73
2023-03-06T05:41:26.069Z,22.40
2023-03-06T05:45:09.983Z,21.57
2023-03-06T05:48:53.093Z,25.60
2023-03-06T05:52:37.094Z,23.63
2023-03-06T05:56:21.743Z,21.83
2023-03-06T06:00:05.138Z,22.93
2023-03-06T06:03:48.086Z,21.27
2023-03-06T06:07:30.756Z,27.20
2023-03-06T06:11:15.144Z,27.63
2023-03-06T06:14:57.902Z,21.73
2023-03-06T06:18:41.411Z,22.67
2023-03-06T06:22:24.361Z,22.67
2023-03-06T06:26:09.074Z,24.27
2023-03-06T06:29:53.415Z,25.10
2023-03-06T06:33:36.074Z,21.23
2023-03-06T06:37:18.704Z,26.30
2023-03-06T06:41:33.429Z,21.80
2023-03-06T06:45:10.376Z,24.00
2023-03-06T06:48:54.616Z,30.23
2023-03-06T06:52:39.338Z,22.50
2023-03-06T06:56:21.993Z,19.93
2023-03-06T07:00:05.799Z,22.37
2023-03-06T07:03:49.836Z,23.20
2023-03-06T07:07:32.743Z,18.53
2023-03-06T07:11:18.013Z,20.87
2023-03-06T07:15:00.669Z,26.17
2023-03-06T07:18:43.333Z,20.37
2023-03-06T07:22:28.141Z,22.63
2023-03-06T07:26:12.016Z,23.57
2023-03-06T07:29:54.665Z,23.57
2023-03-06T07:33:37.317Z,23.57
2023-03-06T07:37:19.966Z,18.97
2023-03-06T07:41:05.077Z,22.77
2023-03-06T07:44:47.709Z,24.30
2023-03-06T07:48:30.370Z,26.37
2023-03-06T07:52:12.963Z,26.43
2023-03-06T07:55:55.800Z,26.03
2023-03-06T07:59:39.796Z,25.50
2023-03-06T08:03:22.436Z,24.70
2023-03-06T08:07:05.231Z,26.37
2023-03-06T08:10:48.945Z,24.60
2023-03-06T08:14:31.616Z,25.67
2023-03-06T08:18:15.581Z,26.33
2023-03-06T08:21:58.203Z,28.83
2023-03-06T08:25:40.846Z,25.13
2023-03-06T08:29:23.486Z,27.50
2023-03-06T08:33:06.135Z,27.10
2023-03-06T08:36:50.154Z,24.20
2023-03-06T08:40:32.770Z,29.47
2023-03-06T08:44:15.354Z,30.17
2023-03-06T08:47:58.179Z,28.80
2023-03-06T08:51:40.847Z,26.70
2023-03-06T08:55:24.778Z,26.17
2023-03-06T08:59:09.040Z,29.13
2023-03-06T09:02:51.627Z,28.63
2023-03-06T09:06:36.388Z,27.77
2023-03-06T09:10:20.883Z,29.57
2023-03-06T09:14:05.649Z,28.33
2023-03-06T09:17:48.471Z,25.77
2023-03-06T09:21:31.155Z,26.73
2023-03-06T09:25:14.810Z,25.77
2023-03-06T09:28:58.577Z,25.37
2023-03-06T09:32:42.738Z,27.10
2023-03-06T09:36:25.487Z,27.50
2023-03-06T09:40:09.065Z,24.83
2023-03-06T09:43:54.266Z,23.83
2023-03-06T09:47:45.750Z,26.17
2023-03-06T09:51:34.316Z,29.23
2023-03-06T09:55:19.655Z,26.53
2023-03-06T09:59:07.701Z,27.23
2023-03-06T10:02:57.130Z,27.53
2023-03-06T10:06:48.247Z,25.20
2023-03-06T10:10:37.082Z,24.57
2023-03-06T10:14:25.390Z,27.63
2023-03-06T10:18:11.768Z,24.37
2023-03-06T10:21:58.526Z,27.67
2023-03-06T10:25:47.684Z,22.33
2023-03-06T10:29:42.218Z,23.13
2023-03-06T10:33:34.755Z,26.37
2023-03-06T10:37:20.512Z,25.00
2023-03-06T10:41:08.392Z,25.03
2023-03-06T10:45:07.458Z,22.60
2023-03-06T10:48:58.972Z,25.00
2023-03-06T10:52:41.723Z,25.10
2023-03-06T10:56:29.626Z,24.67
2023-03-06T11:00:32.704Z,25.63
2023-03-06T11:04:23.208Z,23.17
2023-03-06T11:08:08.630Z,24.67
2023-03-06T11:11:51.420Z,24.43
2023-03-06T11:15:34.674Z,22.33
2023-03-06T11:19:22.825Z,23.70
2023-03-06T11:23:08.323Z,25.77
2023-03-06T11:26:53.836Z,24.57
2023-03-06T11:30:40.897Z,25.23
2023-03-06T11:34:35.435Z,26.17
2023-03-06T11:38:22.091Z,24.17
2023-03-06T11:42:12.269Z,23.30
2023-03-06T11:45:59.295Z,23.10
2023-03-06T11:49:45.967Z,22.33
2023-03-06T11:53:32.842Z,27.97
2023-03-06T11:57:17.171Z,24.97
2023-03-06T12:01:07.576Z,24.07
2023-03-06T12:04:57.058Z,23.70
2023-03-06T12:08:51.378Z,25.30
2023-03-06T12:12:51.777Z,23.43
2023-03-06T12:16:47.436Z,25.30
2023-03-06T12:20:44.290Z,27.70
2023-03-06T12:24:53.551Z,26.00
2023-03-06T12:28:46.413Z,29.17
2023-03-06T12:32:38.108Z,29.10
2023-03-06T12:36:36.766Z,27.67
2023-03-06T12:40:41.543Z,22.60
2023-03-06T12:44:36.503Z,26.33
2023-03-06T12:48:23.394Z,27.60
2023-03-06T12:52:08.824Z,26.50
2023-03-06T12:55:51.992Z,24.70
2023-03-06T12:59:40.144Z,25.93
2023-03-06T13:03:26.065Z,25.10
2023-03-06T13:07:22.811Z,23.77
2023-03-06T13:11:28.319Z,25.27
2023-03-06T13:15:34.417Z,26.87
2023-03-06T13:19:19.651Z,26.47
2023-03-06T13:23:36.043Z,27.97
2023-03-06T13:27:45.861Z,28.63
2023-03-06T13:31:30.654Z,25.80
2023-03-06T13:35:46.978Z,26.53
2023-03-06T13:40:13.265Z,26.07
2023-03-06T13:43:58.523Z,28.03
2023-03-06T13:48:10.688Z,32.57
2023-03-06T13:52:03.037Z,30.67
2023-03-06T13:55:52.656Z,27.27
2023-03-06T14:00:09.468Z,24.43
2023-03-06T14:04:27.285Z,22.80
2023-03-06T14:08:11.498Z,25.10
2023-03-06T14:11:55.995Z,27.27
2023-03-06T14:15:46.306Z,26.60
2023-03-06T14:19:32.341Z,25.90
2023-03-06T14:23:17.339Z,27.20
2023-03-06T14:26:59.934Z,20.67
2023-03-06T14:30:50.923Z,23.67
2023-03-06T14:34:37.624Z,25.40
2023-03-06T14:38:20.274Z,21.63
2023-03-06T14:42:07.503Z,23.20
2023-03-06T14:45:56.577Z,27.00
2023-03-06T14:49:39.344Z,27.63
2023-03-06T14:53:26.350Z,24.07
2023-03-06T14:57:14.319Z,22.93
2023-03-06T15:01:01.284Z,22.57
2023-03-06T15:04:46.116Z,24.77
2023-03-06T15:08:30.693Z,24.33
2023-03-06T15:12:35.141Z,23.40
2023-03-06T15:16:30.057Z,24.73
2023-03-06T15:20:51.640Z,21.50
2023-03-06T15:24:35.728Z,23.17
2023-03-06T15:28:27.170Z,22.40
2023-03-06T15:32:31.204Z,23.73
2023-03-06T15:36:29.583Z,24.60
2023-03-06T15:40:19.132Z,23.53
2023-03-06T15:44:03.256Z,21.50
2023-03-06T15:47:48.874Z,23.67
2023-03-06T15:51:32.142Z,28.20
2023-03-06T15:55:15.834Z,24.93
2023-03-06T15:58:59.391Z,23.10
2023-03-06T16:02:42.117Z,25.57
2023-03-06T16:06:26.144Z,19.13
2023-03-06T16:10:12.945Z,20.33
2023-03-06T16:13:56.275Z,20.80
2023-03-06T16:17:39.091Z,20.10
2023-03-06T16:21:21.866Z,23.80
2023-03-06T16:25:06.848Z,20.07
2023-03-06T16:28:49.559Z,17.80
2023-03-06T16:32:32.285Z,22.13
2023-03-06T16:36:17.901Z,17.67
2023-03-06T16:40:00.532Z,19.23
2023-03-06T16:43:44.590Z,22.50
2023-03-06T16:47:27.267Z,20.03
2023-03-06T16:51:10.706Z,23.67
2023-03-06T16:54:53.358Z,18.10
2023-03-06T16:58:35.970Z,20.80
2023-03-06T17:02:20.064Z,19.50
2023-03-06T17:06:03.095Z,20.77
2023-03-06T17:09:45.791Z,19.63
2023-03-06T17:13:28.449Z,20.50
2023-03-06T17:17:11.101Z,19.67
2023-03-06T17:20:55.670Z,17.00
2023-03-06T17:24:38.284Z,19.30
2023-03-06T17:28:20.937Z,19.40
2023-03-06T17:32:03.735Z,19.77
2023-03-06T17:35:46.910Z,18.07
2023-03-06T17:39:34.523Z,18.67
2023-03-06T17:43:17.194Z,21.10
2023-03-06T17:47:00.110Z,23.33
2023-03-06T17:50:43.480Z,20.73
2023-03-06T17:54:26.932Z,22.13
2023-03-06T17:58:12.371Z,22.80
2023-03-06T18:01:57.118Z,20.87
2023-03-06T18:05:40.144Z,21.13
2023-03-06T18:09:22.790Z,22.87
2023-03-06T18:13:05.662Z,21.23
2023-03-06T18:16:49.721Z,24.50
2023-03-06T18:20:32.834Z,22.67
2023-03-06T18:24:15.681Z,27.47
2023-03-06T18:27:58.418Z,22.90
2023-03-06T18:31:42.565Z,21.60
2023-03-06T18:35:26.703Z,24.30
2023-03-06T18:39:10.617Z,26.57
2023-03-06T18:42:53.362Z,21.93
2023-03-06T18:46:38.193Z,24.90
2023-03-06T18:50:21.142Z,20.53
2023-03-06T18:54:06.274Z,22.07
2023-03-06T18:57:48.996Z,23.00
2023-03-06T19:01:32.131Z,21.43
2023-03-06T19:05:14.940Z,20.53
2023-03-06T19:08:59.466Z,19.87
2023-03-06T19:12:43.502Z,22.87
2023-03-06T19:16:27.917Z,18.67
2023-03-06T19:20:12.082Z,20.43
2023-03-06T19:23:55.231Z,20.47
2023-03-06T19:27:39.235Z,19.13
2023-03-06T19:31:25.271Z,20.87
2023-03-06T19:35:10.940Z,20.37
2023-03-06T19:38:54.813Z,20.60
2023-03-06T19:42:37.516Z,23.03
2023-03-06T19:46:20.439Z,18.23
2023-03-06T19:50:05.190Z,22.03
2023-03-06T19:53:47.901Z,17.57
2023-03-06T19:57:30.581Z,19.13
2023-03-06T20:01:18.125Z,20.90
2023-03-06T20:05:00.816Z,22.07
2023-03-06T20:08:45.736Z,17.80
2023-03-06T20:12:28.515Z,19.23
2023-03-06T20:16:11.261Z,19.33
2023-03-06T20:19:54.276Z,22.87
2023-03-06T20:23:36.983Z,17.07
2023-03-06T20:27:21.102Z,17.73
2023-03-06T20:31:07.614Z,17.57
2023-03-06T20:34:50.582Z,17.37
2023-03-06T20:38:33.284Z,20.03
2023-03-06T20:42:17.651Z,17.67
2023-03-06T20:46:04.046Z,16.57
2023-03-06T20:49:46.859Z,16.37
2023-03-06T20:53:29.682Z,15.23
2023-03-06T20:57:12.465Z,18.47
2023-03-06T21:00:55.702Z,17.83
2023-03-06T21:04:41.033Z,17.90
2023-03-06T21:08:24.183Z,19.70
2023-03-06T21:12:07.250Z,18.10
2023-03-06T21:15:50.005Z,20.73
2023-03-06T21:19:32.692Z,17.17
2023-03-06T21:23:16.812Z,21.73
2023-03-06T21:26:59.758Z,19.73
2023-03-06T21:30:42.491Z,16.33
2023-03-06T21:34:25.444Z,15.33
2023-03-06T21:38:08.743Z,17.67
2023-03-06T21:41:52.792Z,18.40
2023-03-06T21:45:35.581Z,19.07
2023-03-06T21:49:18.467Z,18.17
2023-03-06T21:53:01.215Z,18.07
2023-03-06T21:56:43.933Z,19.67
2023-03-06T22:00:27.970Z,20.30
2023-03-06T22:04:10.994Z,22.87
2023-03-06T22:07:54.368Z,18.50
2023-03-06T22:11:37.851Z,20.17
2023-03-06T22:15:21.819Z,19.53
2023-03-06T22:19:05.979Z,24.17
2023-03-06T22:22:48.620Z,19.43
2023-03-06T22:26:31.455Z,18.47
2023-03-06T22:30:14.484Z,19.50
2023-03-06T22:33:58.784Z,24.17
2023-03-06T22:37:42.817Z,22.17
2023-03-06T22:41:26.853Z,22.43
2023-03-06T22:45:10.719Z,24.57
2023-03-06T22:48:56.859Z,23.07
2023-03-06T22:52:39.626Z,21.13
2023-03-06T22:56:23.908Z,18.40
2023-03-06T23:00:08.238Z,20.30
2023-03-06T23:03:52.366Z,21.83
2023-03-06T23:07:35.058Z,19.67
2023-03-06T23:11:19.499Z,18.60
2023-03-06T23:15:03.665Z,20.63
2023-03-06T23:18:46.453Z,21.90
2023-03-06T23:22:29.194Z,22.40
2023-03-06T23:26:14.677Z,20.27
2023-03-06T23:29:58.927Z,20.90
2023-03-06T23:33:43.142Z,19.73
2023-03-06T23:37:25.880Z,20.63
2023-03-06T23:41:10.284Z,20.93
2023-03-06T23:44:52.883Z,20.90
2023-03-06T23:48:36.547Z,18.57
2023-03-06T23:52:20.568Z,18.67
2023-03-06T23:56:05.997Z,19.03
2023-03-06T23:59:48.817Z,21.60
